Time;durP1;ratioP1;P1;durP2;ratioP2;P2;SDS_P1;SDS_P2;PMS_P1;PMS_P2;Temp;Humidity;BMP_temperature;BMP_pressure;BME280_temperature;BME280_humidity;BME280_pressure;Samples;Min_cycle;Max_cycle;Signal;HPM_P1;HPM_P2
2022/12/26 00:01:00;;;;;;;10.13;5.72;;;;;;;6.03;57.00;102195.72;5044249;28;20923;-76
2022/12/26 00:03:26;;;;;;;8.93;5.90;;;;;;;6.00;57.52;102200.34;5053954;28;20381;-76
2022/12/26 00:05:52;;;;;;;10.63;6.50;;;;;;;6.15;56.92;102201.06;5064281;28;20823;-77
2022/12/26 00:08:18;;;;;;;9.97;6.07;;;;;;;6.21;56.69;102204.16;5060085;28;20450;-76
2022/12/26 00:10:43;;;;;;;8.40;6.03;;;;;;;6.18;56.86;102216.69;5065953;28;20415;-77
2022/12/26 00:13:09;;;;;;;11.30;7.00;;;;;;;6.20;56.50;102205.09;5053911;28;20528;-76
2022/12/26 00:15:38;;;;;;;11.20;7.03;;;;;;;6.41;55.66;102213.31;5065794;28;20483;-77
2022/12/26 00:18:03;;;;;;;13.15;7.40;;;;;;;6.50;55.35;102207.41;5053075;28;20861;-77
2022/12/26 00:20:29;;;;;;;16.93;10.43;;;;;;;6.59;55.15;102207.69;5049012;28;20470;-76
2022/12/26 00:22:54;;;;;;;17.52;9.65;;;;;;;6.57;55.52;102210.47;5054621;28;20380;-77
2022/12/26 00:25:20;;;;;;;16.80;10.30;;;;;;;6.59;55.77;102218.22;5050682;28;20385;-77
2022/12/26 00:27:45;;;;;;;12.40;8.17;;;;;;;6.59;56.08;102210.31;5050138;28;20422;-77
2022/12/26 00:30:11;;;;;;;10.80;7.85;;;;;;;6.62;55.95;102205.69;5050138;28;20397;-77
2022/12/26 00:32:36;;;;;;;12.40;8.05;;;;;;;6.75;55.37;102208.31;5050270;28;20447;-77
2022/12/26 00:35:02;;;;;;;11.30;7.00;;;;;;;6.91;54.96;102209.88;5050417;28;20463;-77
2022/12/26 00:37:27;;;;;;;12.97;7.77;;;;;;;6.91;54.97;102220.41;5049898;28;20388;-77
2022/12/26 00:39:52;;;;;;;10.73;5.78;;;;;;;6.74;54.93;102203.16;5050471;28;20369;-77
2022/12/26 00:42:18;;;;;;;9.90;7.50;;;;;;;6.59;56.21;102205.91;5045488;28;20450;-77
2022/12/26 00:44:43;;;;;;;11.13;6.70;;;;;;;6.67;55.93;102210.66;5065625;28;20389;-77
2022/12/26 00:47:09;;;;;;;10.10;7.23;;;;;;;6.75;55.32;102200.41;5051012;28;20391;-77
2022/12/26 00:49:34;;;;;;;12.23;7.83;;;;;;;6.84;54.83;102217.34;5059370;28;20403;-77
2022/12/26 00:52:00;;;;;;;13.27;7.67;;;;;;;6.89;54.62;102208.16;5055362;28;20941;-77
2022/12/26 00:54:25;;;;;;;10.33;7.00;;;;;;;6.93;54.15;102203.53;5066284;28;20513;-77
2022/12/26 00:56:50;;;;;;;17.55;8.82;;;;;;;6.95;54.34;102206.91;5052060;28;20380;-77
2022/12/26 00:59:16;;;;;;;15.67;11.27;;;;;;;6.80;54.93;102205.34;5049365;28;20461;-77
2022/12/26 01:01:41;;;;;;;11.93;6.63;;;;;;;6.59;55.39;102205.06;5051098;28;20841;-77
2022/12/26 01:04:07;;;;;;;10.82;6.57;;;;;;;6.62;55.16;102197.78;5055918;28;20375;-77
2022/12/26 01:06:32;;;;;;;14.13;7.37;;;;;;;6.65;55.11;102194.09;5067168;28;20378;-77
2022/12/26 01:08:58;;;;;;;13.83;8.23;;;;;;;6.58;55.16;102195.50;5056601;28;20403;-77
2022/12/26 01:11:39;;;;;;;10.48;7.20;;;;;;;6.47;55.47;102198.88;5048803;28;20477;-77
2022/12/26 01:14:13;;;;;;;10.70;5.38;;;;;;;6.43;55.42;102198.25;5058174;28;20789;-77
2022/12/26 01:16:40;;;;;;;8.05;5.47;;;;;;;6.45;55.37;102206.03;5047699;28;20395;-77
2022/12/26 01:19:06;;;;;;;8.23;5.25;;;;;;;6.39;56.00;102203.81;5062480;28;20450;-77
2022/12/26 01:21:31;;;;;;;9.85;6.25;;;;;;;6.44;55.67;102191.16;5053533;28;20460;-77
2022/12/26 01:23:57;;;;;;;10.43;6.00;;;;;;;6.62;54.88;102200.41;5059413;28;20472;-76
2022/12/26 01:26:22;;;;;;;8.83;5.90;;;;;;;6.72;54.87;102192.72;5049592;28;20368;-77
2022/12/26 01:28:49;;;;;;;12.60;7.80;;;;;;;6.79;54.17;102201.88;5058918;28;20383;-76
2022/12/26 01:31:15;;;;;;;12.55;7.20;;;;;;;6.73;54.19;102209.38;5064242;28;20403;-76
2022/12/26 01:33:40;;;;;;;10.32;5.90;;;;;;;6.69;54.31;102214.84;5051166;28;20381;-77
2022/12/26 01:36:06;;;;;;;13.07;7.80;;;;;;;6.50;54.69;102206.56;5057534;28;20469;-77
2022/12/26 01:38:31;;;;;;;17.67;8.40;;;;;;;6.31;54.86;102217.50;5061588;28;20419;-77
2022/12/26 01:43:47;;;;;;;15.23;8.15;;;;;;;6.08;55.53;102222.53;5067899;28;20462;-77
2022/12/26 01:46:14;;;;;;;12.85;8.80;;;;;;;6.05;55.66;102225.41;5063201;28;20388;-77
2022/12/26 01:48:39;;;;;;;15.05;9.18;;;;;;;5.94;55.93;102227.84;5048935;28;20408;-77
2022/12/26 01:51:05;;;;;;;13.88;8.80;;;;;;;5.87;56.20;102229.22;5047455;28;20749;-77
2022/12/26 01:53:44;;;;;;;13.05;7.55;;;;;;;5.97;56.38;102232.94;5054994;28;20396;-77
2022/12/26 01:56:15;;;;;;;12.00;7.53;;;;;;;5.88;56.00;102236.16;5063237;28;20388;-77
2022/12/26 01:58:49;;;;;;;13.02;7.80;;;;;;;5.83;56.52;102233.81;5059389;28;20377;-77
2022/12/26 02:01:16;;;;;;;12.80;8.25;;;;;;;5.86;56.33;102238.06;5054324;28;20387;-77
2022/12/26 02:06:28;;;;;;;17.55;10.30;;;;;;;5.91;55.83;102230.72;5060450;28;20867;-77
2022/12/26 02:08:54;;;;;;;17.23;11.25;;;;;;;5.92;56.33;102235.00;5051875;28;20377;-77
2022/12/26 02:11:32;;;;;;;18.30;11.68;;;;;;;5.88;56.31;102230.91;5059635;28;20847;-77
2022/12/26 02:13:58;;;;;;;20.48;12.52;;;;;;;5.97;56.06;102237.38;5054904;28;20397;-77
2022/12/26 02:16:24;;;;;;;20.70;12.23;;;;;;;5.94;56.20;102236.63;5048303;28;20380;-76
2022/12/26 02:18:50;;;;;;;21.17;13.68;;;;;;;5.94;56.35;102248.91;5047414;28;20423;-77
2022/12/26 02:21:47;;;;;;;17.97;12.00;;;;;;;6.01;56.12;102242.31;5048828;28;21080;-77
2022/12/26 02:25:04;;;;;;;37.17;17.03;;;;;;;5.97;56.03;102246.13;5047150;28;20380;-77
2022/12/26 02:27:59;;;;;;;19.92;11.15;;;;;;;5.89;56.41;102241.34;5051544;28;20431;-77
2022/12/26 02:30:40;;;;;;;23.10;13.93;;;;;;;5.91;56.38;102247.34;5052923;28;20396;-77
2022/12/26 02:33:21;;;;;;;24.35;13.65;;;;;;;5.85;56.85;102247.75;5052853;28;20918;-77
2022/12/26 02:36:05;;;;;;;19.70;12.90;;;;;;;5.82;56.47;102244.47;5053520;28;20392;-76
2022/12/26 02:38:42;;;;;;;20.33;12.67;;;;;;;5.74;57.19;102239.69;5052396;28;20371;-76
2022/12/26 02:41:20;;;;;;;22.67;14.48;;;;;;;5.80;57.30;102243.72;5052164;28;20372;-76
2022/12/26 02:43:48;;;;;;;20.90;14.02;;;;;;;6.03;56.25;102242.22;5053304;28;20388;-76
2022/12/26 03:15:26;;;;;;;39.85;35.45;;;;;;;6.25;54.63;102199.50;5053010;28;20999;-77
2022/12/26 03:18:02;;;;;;;28.25;20.88;;;;;;;6.22;54.85;102203.19;5053045;28;20719;-77
2022/12/26 03:20:35;;;;;;;92.07;44.53;;;;;;;6.16;54.91;102202.75;5052383;28;21218;-77
2022/12/26 03:23:14;;;;;;;102.67;46.67;;;;;;;6.01;55.08;102202.84;5051694;28;20461;-77
2022/12/26 03:28:41;;;;;;;33.33;24.75;;;;;;;5.65;55.64;102203.47;5051321;28;20476;-77
2022/12/26 03:31:11;;;;;;;38.35;20.30;;;;;;;5.53;56.33;102207.78;5051642;28;20861;-77
2022/12/26 03:36:50;;;;;;;44.92;25.65;;;;;;;5.61;55.88;102202.84;5051623;28;21048;-77
2022/12/26 04:44:31;;;;;;;18.88;14.68;;;;;;;5.20;55.85;102260.72;5051781;28;20470;-78
2022/12/26 04:46:57;;;;;;;16.27;12.27;;;;;;;5.25;55.78;102267.38;5051699;28;20830;-78
2022/12/26 04:52:10;;;;;;;31.65;28.23;;;;;;;5.29;55.13;102266.22;5051275;28;20454;-77
2022/12/26 04:54:36;;;;;;;50.83;46.60;;;;;;;5.28;54.87;102269.81;5051244;28;20400;-77
2022/12/26 04:57:02;;;;;;;22.47;20.17;;;;;;;5.26;54.92;102270.88;5050583;28;20457;-77
2022/12/26 04:59:28;;;;;;;31.42;28.48;;;;;;;5.27;55.37;102273.38;5050970;28;20409;-77
2022/12/26 05:10:19;;;;;;;16.27;12.95;;;;;;;5.11;55.27;102285.81;5050541;28;20490;-77
2022/12/26 05:12:44;;;;;;;33.30;18.55;;;;;;;5.07;55.37;102293.03;5050508;28;20372;-77
2022/12/26 05:15:10;;;;;;;47.28;39.47;;;;;;;5.05;55.48;102297.53;5050481;28;20438;-77
2022/12/26 05:28:40;;;;;;;30.85;23.35;;;;;;;4.54;57.50;102307.66;5050736;28;20721;-77
2022/12/26 05:31:07;;;;;;;18.75;12.93;;;;;;;4.44;57.78;102309.97;5049508;28;20880;-77
2022/12/26 05:36:19;;;;;;;28.80;22.40;;;;;;;4.53;57.52;102321.72;5039948;28;20910;-77
2022/12/26 05:38:45;;;;;;;23.92;16.10;;;;;;;4.60;57.70;102318.63;5044116;28;20401;-77
2022/12/26 05:41:10;;;;;;;21.33;15.83;;;;;;;4.72;57.00;102310.97;5049648;28;20389;-77
2022/12/26 05:43:36;;;;;;;18.17;13.13;;;;;;;4.82;56.56;102309.47;5049899;28;20384;-77
2022/12/26 05:46:01;;;;;;;21.17;15.60;;;;;;;4.74;56.92;102298.59;5051276;28;20388;-78
2022/12/26 05:48:27;;;;;;;48.15;41.85;;;;;;;4.82;56.48;102304.19;5050734;28;20412;-77
2022/12/26 05:50:57;;;;;;;32.38;25.70;;;;;;;4.96;56.25;102309.47;5050018;28;20412;-77
2022/12/26 05:53:23;;;;;;;28.87;22.03;;;;;;;5.04;55.54;102314.28;5032658;28;20724;-77
2022/12/26 05:55:48;;;;;;;30.03;21.10;;;;;;;5.03;55.81;102312.56;5049835;28;20392;-77
2022/12/26 05:58:14;;;;;;;28.50;19.53;;;;;;;4.93;55.60;102304.41;5040568;28;20386;-77
2022/12/26 06:00:39;;;;;;;22.70;18.52;;;;;;;4.96;56.23;102312.09;5044964;28;20426;-76
2022/12/26 06:03:05;;;;;;;27.43;18.93;;;;;;;4.82;55.66;102314.72;5054756;28;20380;-78
2022/12/26 06:05:30;;;;;;;48.17;33.63;;;;;;;4.86;55.99;102323.25;5053752;28;20431;-77
2022/12/26 06:07:55;;;;;;;67.83;47.77;;;;;;;4.85;56.10;102318.97;5053824;28;20432;-77
2022/12/26 06:10:21;;;;;;;29.73;23.40;;;;;;;4.73;56.25;102320.53;5053224;28;20404;-77
2022/12/26 06:12:46;;;;;;;38.73;26.73;;;;;;;4.71;56.78;102328.50;5054018;28;20395;-77
2022/12/26 06:15:12;;;;;;;20.97;15.40;;;;;;;4.65;56.90;102323.63;5053779;28;20389;-77
2022/12/26 06:17:38;;;;;;;17.90;12.50;;;;;;;4.73;57.23;102336.28;5054106;28;20853;-77
2022/12/26 06:20:04;;;;;;;24.35;16.75;;;;;;;4.68;57.43;102340.97;5047918;28;20386;-79
2022/12/26 06:22:30;;;;;;;15.52;9.35;;;;;;;4.58;57.47;102346.78;5052506;28;20395;-77
2022/12/26 06:24:56;;;;;;;13.90;9.20;;;;;;;4.63;57.70;102354.38;5058227;28;20380;-77
2022/12/26 06:27:21;;;;;;;16.17;11.70;;;;;;;4.66;57.54;102355.97;5036156;28;20405;-77
2022/12/26 06:29:47;;;;;;;15.73;10.85;;;;;;;4.84;56.83;102351.41;5043621;28;20447;-78
2022/12/26 06:32:13;;;;;;;17.63;10.65;;;;;;;4.92;56.75;102341.28;5053359;28;20381;-77
2022/12/26 06:34:38;;;;;;;21.52;14.30;;;;;;;4.86;56.90;102357.41;5052903;28;20447;-77
2022/12/26 06:37:04;;;;;;;22.30;16.80;;;;;;;4.82;56.46;102363.78;5053784;28;20395;-78
2022/12/26 06:39:29;;;;;;;24.80;16.43;;;;;;;4.96;56.62;102363.81;5041825;28;20411;-77
2022/12/26 06:41:55;;;;;;;33.10;22.40;;;;;;;5.02;55.81;102355.53;5053619;28;20434;-78
2022/12/26 06:44:20;;;;;;;52.20;35.37;;;;;;;5.04;56.03;102353.69;5053860;28;20882;-78
2022/12/26 06:46:46;;;;;;;39.42;25.27;;;;;;;5.10;56.34;102353.31;5054674;28;20385;-78
2022/12/26 06:49:11;;;;;;;28.97;19.33;;;;;;;5.11;56.15;102348.88;5054661;28;20413;-78
2022/12/26 06:51:37;;;;;;;28.37;19.27;;;;;;;5.15;55.93;102346.00;5053409;28;20888;-78
2022/12/26 06:54:02;;;;;;;34.77;23.30;;;;;;;5.24;55.67;102339.31;5055503;28;20387;-79
2022/12/26 06:56:29;;;;;;;33.90;20.23;;;;;;;5.29;55.93;102336.38;5054403;28;20553;-79
2022/12/26 06:58:56;;;;;;;26.75;19.02;;;;;;;5.44;55.93;102339.84;5052164;28;20396;-78
2022/12/26 07:01:23;;;;;;;23.73;17.67;;;;;;;5.51;55.27;102342.00;5051908;28;20871;-77
2022/12/26 07:03:51;;;;;;;31.88;21.05;;;;;;;5.54;55.52;102338.34;5050074;28;20387;-77
2022/12/26 07:06:30;;;;;;;33.55;21.25;;;;;;;5.59;56.06;102335.41;5049035;28;20566;-77
2022/12/26 07:09:13;;;;;;;33.03;20.40;;;;;;;5.54;55.62;102330.44;5052186;28;20391;-76
2022/12/26 07:11:40;;;;;;;32.13;21.75;;;;;;;5.57;55.99;102345.19;5052494;28;20401;-77
2022/12/26 07:14:06;;;;;;;202.93;125.72;;;;;;;5.60;56.11;102355.50;5053499;28;20752;-79
2022/12/26 07:16:37;;;;;;;38.65;26.48;;;;;;;5.59;55.86;102351.19;5052268;28;20388;-76
2022/12/26 07:19:04;;;;;;;33.47;24.27;;;;;;;5.72;56.02;102362.63;5052947;28;20399;-79
2022/12/26 07:21:29;;;;;;;47.72;34.55;;;;;;;5.80;55.66;102362.13;5052714;28;20399;-77
2022/12/26 07:23:55;;;;;;;48.20;33.47;;;;;;;5.84;55.59;102361.84;5053284;28;20749;-77
2022/12/26 07:26:23;;;;;;;39.85;29.17;;;;;;;5.89;56.10;102370.28;5052265;28;20377;-78
2022/12/26 07:28:52;;;;;;;55.80;42.63;;;;;;;5.98;55.95;102373.28;5054227;28;20385;-76
2022/12/26 07:31:19;;;;;;;43.78;34.65;;;;;;;6.04;55.70;102376.38;5053572;28;20400;-78
2022/12/26 07:33:51;;;;;;;41.25;32.00;;;;;;;6.12;55.77;102389.91;5053279;28;20459;-77
2022/12/26 07:36:17;;;;;;;34.20;25.63;;;;;;;6.17;55.69;102381.69;5045255;28;20388;-78
2022/12/26 07:38:43;;;;;;;35.93;27.13;;;;;;;6.20;55.70;102386.78;5053596;28;20443;-78
2022/12/26 07:43:52;;;;;;;45.95;26.50;;;;;;;6.19;55.95;102382.44;5054001;28;20446;-79
2022/12/26 07:46:18;;;;;;;43.20;26.83;;;;;;;6.21;56.42;102387.59;5052091;28;20388;-78
2022/12/26 07:48:44;;;;;;;38.72;25.95;;;;;;;6.24;56.36;102380.34;5053243;28;20481;-77
2022/12/26 07:51:09;;;;;;;41.85;27.25;;;;;;;6.32;56.42;102378.06;5052547;28;20495;-78
2022/12/26 07:53:35;;;;;;;42.60;27.70;;;;;;;6.46;56.06;102381.56;5052303;28;20380;-78
2022/12/26 07:56:01;;;;;;;39.97;25.95;;;;;;;6.56;56.34;102381.81;5053078;28;20782;-76
2022/12/26 07:58:27;;;;;;;27.35;19.95;;;;;;;6.64;56.20;102385.59;5053682;28;20385;-77
2022/12/26 08:00:52;;;;;;;27.80;18.77;;;;;;;6.67;56.40;102380.13;5053415;28;20428;-78
2022/12/26 08:03:18;;;;;;;31.93;22.43;;;;;;;6.81;56.51;102392.38;5052094;28;20388;-76
2022/12/26 08:05:47;;;;;;;24.43;17.17;;;;;;;6.82;56.13;102390.59;5051904;28;20543;-76
2022/12/26 08:08:13;;;;;;;23.85;16.73;;;;;;;6.83;56.72;102393.13;5052262;28;20393;-78
2022/12/26 08:10:39;;;;;;;23.98;17.77;;;;;;;6.72;56.74;102393.00;5051687;28;20415;-78
2022/12/26 08:13:04;;;;;;;22.58;16.27;;;;;;;6.65;56.97;102402.28;5052223;28;20495;-77
2022/12/26 08:15:30;;;;;;;33.60;22.20;;;;;;;6.68;56.96;102397.66;5051998;28;20389;-78
2022/12/26 08:17:55;;;;;;;31.97;22.87;;;;;;;6.67;57.05;102397.75;5052504;28;20530;-79
2022/12/26 08:20:21;;;;;;;33.83;23.13;;;;;;;6.72;56.57;102400.91;5052336;28;20385;-78
2022/12/26 08:22:46;;;;;;;37.67;25.42;;;;;;;6.81;56.33;102402.94;5052932;28;20487;-78
2022/12/26 08:25:12;;;;;;;40.70;28.73;;;;;;;6.82;56.60;102394.06;5053034;28;20853;-78
2022/12/26 08:27:37;;;;;;;43.67;31.43;;;;;;;6.80;56.12;102401.22;5034737;28;20583;-77
2022/12/26 08:30:03;;;;;;;46.57;31.53;;;;;;;6.86;55.99;102402.59;5052277;28;20736;-77
2022/12/26 08:32:29;;;;;;;42.67;30.67;;;;;;;6.91;56.30;102399.66;5052545;28;20757;-77
2022/12/26 08:34:55;;;;;;;44.83;31.40;;;;;;;6.99;56.21;102395.56;5052267;28;20923;-78
2022/12/26 08:37:22;;;;;;;43.90;30.57;;;;;;;7.15;56.00;102398.00;5051302;28;20461;-76
2022/12/26 08:39:48;;;;;;;41.08;27.88;;;;;;;7.26;55.64;102411.28;5052639;28;20400;-77
2022/12/26 08:42:14;;;;;;;37.50;26.58;;;;;;;7.23;55.88;102408.00;5052058;28;20392;-79
2022/12/26 08:44:39;;;;;;;36.37;26.93;;;;;;;7.27;55.69;102396.28;5052050;28;20399;-77
2022/12/26 08:47:05;;;;;;;39.47;27.30;;;;;;;7.41;55.47;102397.97;5051435;28;20482;-78
2022/12/26 08:49:30;;;;;;;35.70;24.50;;;;;;;7.47;55.40;102398.38;5054058;28;20398;-78
2022/12/26 08:51:58;;;;;;;35.05;23.90;;;;;;;7.40;55.54;102396.25;5050327;28;20435;-78
2022/12/26 08:54:23;;;;;;;24.63;18.65;;;;;;;7.43;55.55;102396.06;5051560;28;20381;-78
2022/12/26 08:56:49;;;;;;;30.80;18.83;;;;;;;7.54;55.62;102392.66;5051952;28;20413;-77
2022/12/26 08:59:14;;;;;;;24.53;16.87;;;;;;;7.63;55.12;102392.00;5052229;28;20380;-77
2022/12/26 09:01:40;;;;;;;24.17;17.00;;;;;;;7.68;55.00;102383.78;5051719;28;21008;-78
2022/12/26 09:04:08;;;;;;;21.70;15.47;;;;;;;7.71;54.51;102381.75;5050047;28;20756;-77
2022/12/26 09:06:36;;;;;;;24.70;16.10;;;;;;;7.79;54.63;102370.63;5050530;28;20401;-78
2022/12/26 09:09:03;;;;;;;22.05;16.02;;;;;;;7.71;54.67;102370.38;5055748;28;20482;-77
2022/12/26 09:11:29;;;;;;;20.27;15.20;;;;;;;7.81;54.34;102374.00;5054323;28;20419;-77
2022/12/26 09:13:58;;;;;;;21.42;14.68;;;;;;;7.82;54.01;102373.91;5042967;28;20392;-77
2022/12/26 09:16:27;;;;;;;20.73;14.77;;;;;;;7.92;53.92;102373.22;5051086;28;20393;-78
2022/12/26 09:18:56;;;;;;;21.00;14.80;;;;;;;7.98;53.27;102376.28;5050718;28;20393;-77
2022/12/26 09:21:22;;;;;;;21.67;14.73;;;;;;;7.95;53.49;102375.66;5054735;28;20376;-77
2022/12/26 09:23:48;;;;;;;18.48;13.60;;;;;;;7.83;52.88;102375.59;5050051;28;20454;-79
2022/12/26 09:26:16;;;;;;;24.15;14.30;;;;;;;7.96;52.92;102383.47;5050286;28;20388;-78
2022/12/26 09:28:42;;;;;;;21.80;14.65;;;;;;;8.03;52.31;102373.28;5050079;28;20388;-79
2022/12/26 09:31:17;;;;;;;25.23;15.23;;;;;;;8.22;52.09;102376.25;5049614;28;20404;-78
2022/12/26 09:33:43;;;;;;;23.15;14.48;;;;;;;8.18;52.03;102382.72;5050519;28;20377;-79
2022/12/26 09:36:11;;;;;;;27.83;14.48;;;;;;;8.10;52.14;102371.88;5054891;28;20475;-78
2022/12/26 09:38:37;;;;;;;19.58;13.65;;;;;;;8.14;52.24;102377.78;5054620;28;20385;-81
2022/12/26 09:41:23;;;;;;;20.33;13.70;;;;;;;8.09;51.79;102372.84;5054122;28;20446;-77
2022/12/26 09:43:57;;;;;;;20.40;14.00;;;;;;;8.21;51.29;102385.16;5054650;28;20395;-77
2022/12/26 09:46:33;;;;;;;21.75;14.57;;;;;;;8.24;51.84;102370.84;5053215;28;20404;-77
2022/12/26 09:49:10;;;;;;;23.58;15.90;;;;;;;8.44;51.29;102379.13;5055830;28;20435;-76
2022/12/26 09:51:38;;;;;;;23.13;16.67;;;;;;;8.47;51.17;102366.53;5054258;28;20423;-79
2022/12/26 09:54:07;;;;;;;24.27;16.60;;;;;;;8.54;51.42;102361.63;5054647;28;20377;-78
2022/12/26 09:56:36;;;;;;;23.50;17.05;;;;;;;8.61;51.23;102370.78;5055141;28;20412;-79
2022/12/26 09:59:12;;;;;;;29.42;17.80;;;;;;;8.43;51.13;102365.09;5065504;28;20395;-78
2022/12/26 10:01:39;;;;;;;25.73;18.05;;;;;;;8.59;51.36;102359.50;5049087;28;20395;-78
2022/12/26 10:04:18;;;;;;;28.05;20.58;;;;;;;8.73;51.74;102348.72;5062658;28;20375;-78
2022/12/26 10:06:52;;;;;;;27.75;18.88;;;;;;;8.88;50.85;102346.69;5058966;28;20373;-78
2022/12/26 10:09:38;;;;;;;28.42;20.00;;;;;;;8.78;50.63;102343.06;5068306;28;20860;-77
2022/12/26 10:12:04;;;;;;;29.40;20.42;;;;;;;8.72;51.03;102341.72;5051625;28;20481;-78
2022/12/26 10:14:35;;;;;;;49.07;30.73;;;;;;;8.72;51.20;102341.72;5052960;28;20805;-79
2022/12/26 10:17:10;;;;;;;39.65;25.38;;;;;;;8.89;51.24;102329.84;5053849;28;20396;-77
2022/12/26 10:19:43;;;;;;;32.42;22.20;;;;;;;9.13;51.02;102318.31;5053814;28;20399;-78
2022/12/26 10:22:33;;;;;;;30.95;21.65;;;;;;;8.98;50.79;102318.56;5054572;28;20387;-77
2022/12/26 10:25:01;;;;;;;30.08;20.35;;;;;;;9.03;51.24;102312.91;5053276;28;20384;-76
2022/12/26 10:27:34;;;;;;;33.83;23.27;;;;;;;9.11;51.02;102301.69;5053087;28;20873;-76
2022/12/26 10:30:04;;;;;;;28.83;19.88;;;;;;;9.18;50.27;102297.63;5053012;28;20434;-78
2022/12/26 10:32:40;;;;;;;26.33;18.90;;;;;;;9.24;50.50;102299.78;5052943;28;20480;-77
2022/12/26 10:35:38;;;;;;;26.50;19.08;;;;;;;9.30;51.01;102306.41;5052549;28;20659;-80
2022/12/26 10:38:14;;;;;;;26.88;18.83;;;;;;;9.46;50.36;102303.38;5053607;28;20853;-77
2022/12/26 10:40:43;;;;;;;33.22;20.40;;;;;;;9.54;50.07;102304.44;5054002;28;20377;-80
2022/12/26 10:43:27;;;;;;;28.98;19.98;;;;;;;9.66;49.49;102297.28;5054612;28;20430;-78
2022/12/26 10:46:11;;;;;;;31.40;21.67;;;;;;;9.68;49.23;102286.56;5053589;28;20423;-79
2022/12/26 10:48:37;;;;;;;32.38;20.75;;;;;;;9.64;49.39;102283.34;5053906;28;20416;-77
2022/12/26 10:51:02;;;;;;;30.80;21.25;;;;;;;9.55;49.54;102274.34;5053357;28;20417;-77
2022/12/26 10:53:28;;;;;;;30.47;21.83;;;;;;;9.60;49.73;102268.69;5053708;28;20438;-78
2022/12/26 10:55:55;;;;;;;31.03;22.00;;;;;;;9.77;49.52;102259.34;5054922;28;20373;-77
2022/12/26 10:58:28;;;;;;;33.15;23.00;;;;;;;9.78;49.17;102253.09;5056396;28;20376;-77
2022/12/26 11:00:54;;;;;;;32.00;21.48;;;;;;;9.82;49.41;102253.66;5053744;28;20408;-78
2022/12/26 11:03:20;;;;;;;33.50;23.17;;;;;;;9.70;49.64;102243.09;5054209;28;20424;-78
2022/12/26 11:05:47;;;;;;;32.17;22.27;;;;;;;9.72;49.28;102241.19;5053274;28;20391;-78
2022/12/26 11:08:22;;;;;;;30.77;21.75;;;;;;;9.67;49.87;102235.44;5052817;28;20447;-77
2022/12/26 11:11:21;;;;;;;33.47;21.83;;;;;;;9.65;49.23;102224.13;5054363;28;20476;-76
2022/12/26 11:13:54;;;;;;;28.00;21.30;;;;;;;9.66;49.63;102231.09;5042592;28;20399;-78
2022/12/26 11:16:36;;;;;;;29.35;21.85;;;;;;;9.66;49.39;102217.03;5055896;28;20381;-78
2022/12/26 11:19:02;;;;;;;32.15;22.75;;;;;;;9.67;49.48;102214.25;5054143;28;20388;-77
2022/12/26 11:21:30;;;;;;;31.43;21.50;;;;;;;9.64;49.20;102208.38;5053522;28;20447;-78
2022/12/26 11:24:08;;;;;;;30.00;21.80;;;;;;;9.65;49.40;102212.69;5053421;28;20384;-77
2022/12/26 11:26:34;;;;;;;41.17;25.90;;;;;;;9.77;49.52;102207.19;5053981;28;20399;-79
2022/12/26 11:29:18;;;;;;;33.58;22.75;;;;;;;9.88;49.01;102208.94;5053751;28;20389;-79
2022/12/26 11:31:57;;;;;;;32.45;22.30;;;;;;;9.93;49.33;102205.94;5053260;28;20470;-76
2022/12/26 11:34:33;;;;;;;50.97;28.13;;;;;;;9.94;48.89;102200.50;5053543;28;20380;-78
2022/12/26 11:36:59;;;;;;;40.10;24.88;;;;;;;9.93;49.15;102197.97;5050110;28;20380;-78
2022/12/26 11:39:31;;;;;;;84.25;40.50;;;;;;;9.96;49.36;102200.38;5048943;28;20443;-77
2022/12/26 11:41:57;;;;;;;25.52;17.85;;;;;;;9.94;48.78;102194.38;5051299;28;20380;-78
2022/12/26 11:44:25;;;;;;;23.85;15.35;;;;;;;9.90;49.10;102195.59;5052414;28;20388;-76
2022/12/26 11:47:06;;;;;;;22.45;15.85;;;;;;;9.95;49.43;102198.69;5052302;28;20380;-78
2022/12/26 11:49:50;;;;;;;30.25;19.98;;;;;;;10.10;48.88;102191.25;5050619;28;20404;-79
2022/12/26 11:52:39;;;;;;;20.73;14.80;;;;;;;10.16;48.79;102198.69;5051511;28;20389;-78
2022/12/26 11:55:28;;;;;;;23.05;14.80;;;;;;;10.08;48.61;102203.78;5049631;28;20373;-77
2022/12/26 11:58:08;;;;;;;29.27;19.83;;;;;;;10.13;48.82;102204.25;5050223;28;20380;-78
2022/12/26 12:00:50;;;;;;;23.52;16.52;;;;;;;10.23;48.90;102199.84;5050451;28;20407;-77
2022/12/26 12:03:24;;;;;;;21.37;15.67;;;;;;;10.15;48.40;102194.34;5050819;28;20429;-78
2022/12/26 12:06:05;;;;;;;23.33;16.08;;;;;;;10.09;48.42;102194.88;5052602;28;20442;-79
2022/12/26 12:08:56;;;;;;;20.63;15.27;;;;;;;10.02;48.85;102194.56;5053701;28;20385;-78
2022/12/26 12:11:43;;;;;;;23.52;18.35;;;;;;;10.14;49.17;102193.50;5053085;28;20443;-78
2022/12/26 12:14:23;;;;;;;41.15;37.42;;;;;;;10.25;48.69;102183.81;5052931;28;20408;-78
2022/12/26 12:17:06;;;;;;;29.33;21.27;;;;;;;10.27;48.57;102180.06;5051883;28;21074;-77
2022/12/26 12:19:57;;;;;;;30.35;22.50;;;;;;;10.46;48.58;102182.00;5052944;28;20472;-76
2022/12/26 12:22:43;;;;;;;22.92;17.70;;;;;;;10.47;48.23;102181.00;5053512;28;20460;-78
2022/12/26 12:25:26;;;;;;;32.50;26.05;;;;;;;10.47;48.97;102165.09;5061208;28;20385;-78
2022/12/26 12:28:02;;;;;;;32.47;26.17;;;;;;;10.41;48.77;102164.81;5052134;28;20388;-77
2022/12/26 12:30:33;;;;;;;28.55;20.33;;;;;;;10.47;48.51;102166.91;5051313;28;20922;-78
2022/12/26 12:33:09;;;;;;;30.07;26.73;;;;;;;10.57;48.15;102162.50;5031597;28;20398;-78
2022/12/26 12:35:47;;;;;;;24.08;16.33;;;;;;;10.52;48.12;102170.00;5032408;28;20386;-76
2022/12/26 12:38:27;;;;;;;27.27;24.08;;;;;;;10.53;48.44;102158.41;5031860;28;20401;-78
2022/12/26 12:41:30;;;;;;;24.25;16.08;;;;;;;10.46;47.94;102151.97;5048176;28;20377;-78
2022/12/26 12:43:58;;;;;;;32.50;29.20;;;;;;;10.59;48.72;102157.03;5049400;28;20420;-78
2022/12/26 12:46:39;;;;;;;20.92;14.93;;;;;;;10.60;48.60;102164.88;5051145;28;20830;-78
2022/12/26 12:49:16;;;;;;;20.30;15.77;;;;;;;10.58;48.57;102166.81;5050693;28;20409;-78
2022/12/26 12:52:21;;;;;;;21.85;14.10;;;;;;;10.82;51.41;102179.75;5050824;28;20423;-78
2022/12/26 12:55:21;;;;;;;28.83;17.15;;;;;;;11.06;50.41;102187.34;5053107;28;20404;-78
2022/12/26 12:57:57;;;;;;;24.95;19.17;;;;;;;11.02;50.21;102193.03;5053538;28;20829;-82
2022/12/26 13:00:37;;;;;;;22.30;19.03;;;;;;;11.55;52.34;102192.69;5054164;28;20480;-83
2022/12/26 13:03:18;;;;;;;31.35;28.20;;;;;;;11.97;52.23;102172.94;5056578;28;20385;-82
2022/12/26 13:05:51;;;;;;;24.58;15.40;;;;;;;12.05;49.89;102167.78;5056037;28;20755;-78
2022/12/26 13:08:22;;;;;;;23.08;18.80;;;;;;;11.69;48.89;102172.84;5050766;28;20423;-78
2022/12/26 13:10:57;;;;;;;26.33;18.05;;;;;;;11.54;48.31;102182.19;5051869;28;20469;-78
2022/12/26 13:13:38;;;;;;;30.83;22.90;;;;;;;11.45;47.93;102178.56;5054693;28;20376;-78
2022/12/26 13:16:11;;;;;;;33.55;30.33;;;;;;;11.33;47.86;102172.56;5053767;28;20376;-77
2022/12/26 13:18:43;;;;;;;20.00;15.57;;;;;;;11.27;47.63;102175.75;5051845;28;20381;-78
2022/12/26 13:21:11;;;;;;;20.75;17.17;;;;;;;11.19;48.01;102170.31;5051936;28;20461;-77
2022/12/26 13:26:34;;;;;;;24.35;17.88;;;;;;;11.04;47.79;102165.41;5051805;28;20396;-77
2022/12/26 13:29:26;;;;;;;24.42;19.08;;;;;;;11.05;47.85;102160.94;5051243;28;20467;-78
2022/12/26 13:31:51;;;;;;;25.30;17.10;;;;;;;11.06;47.74;102160.81;5052559;28;20416;-78
2022/12/26 13:34:19;;;;;;;22.57;16.47;;;;;;;11.11;47.97;102160.41;5050881;28;20376;-78
2022/12/26 13:36:51;;;;;;;23.13;16.52;;;;;;;11.07;47.87;102165.16;5052791;28;20837;-78
2022/12/26 13:39:22;;;;;;;23.52;18.05;;;;;;;11.03;48.04;102155.75;5049044;28;20875;-77
2022/12/26 13:44:36;;;;;;;26.57;17.43;;;;;;;10.97;48.09;102145.72;5049429;28;20488;-78
2022/12/26 13:47:02;;;;;;;23.70;17.50;;;;;;;11.03;48.26;102154.94;5073735;28;20470;-77
2022/12/26 13:49:35;;;;;;;23.00;16.97;;;;;;;10.97;48.05;102148.34;5063280;28;20477;-78
2022/12/26 13:52:10;;;;;;;23.30;17.17;;;;;;;10.96;48.19;102154.63;5045928;28;20753;-77